Tiempo atmosférico en la estación meteorológica de Villacarriedo, Cantabria (194 m.)



Fecha
DESCASC
Temp. máxima en grados centígrados (hora)
DESCASC
Temp. mínima en grados centígrados (hora)
DESCASC
Temp. media en grados centígrados
DESCASC
Racha de viento máxima en m/sg (hora)
DESCASC
Velocidad máxima media en intervalos de 10 minutos(hora)
DESCASC
Precipitaciones diarias en mm
DESCASC
Precipitaciones de 00:00 a 06:00 en mm
DESCASC
Precipitaciones de 06:00 a 12:00 en mm
DESCASC
Precipitaciones de 12:00 a 18:00 en mm
DESCASC
Precipitaciones de 18:00 a 24:00 en mm
DESCASC
16-04-2019 21.6 (17:40) 4.7 (08:10) 13.2 8.89 (17:00) 4.17 (15:40) 0.4 0.2 0.2 0 0
15-04-2019 25.6 (14:10) 10.6 (03:40) 18.1 15.56 (14:20) 10 (14:30) 17.1 0 0 10.6 6.5
14-04-2019 21 (18:00) 9.6 (00:00) 15.3 6.94 (14:10) 4.17 (14:10) 0 0 0 0 0
13-04-2019 20 (17:10) 0.6 (00:00) 10.3 7.22 (15:30) 4.44 (14:40) 0 0 0 0 0
12-04-2019 15.5 (17:00) 4.1 (00:00) 9.8 7.22 (15:20) 4.72 (15:20) 0.2 0.2 0 0 0
11-04-2019 10.3 (17:30) 7.7 (00:00) 9 8.61 (14:50) 4.72 (14:50) 12.4 0.8 1.6 6 4
10-04-2019 13.5 (14:30) 4.4 (00:00) 9 8.06 (15:50) 5 (16:10) 5.2 3.2 0 0 2
09-04-2019 16.4 (13:10) 4.9 (00:00) 10.6 9.72 (12:00) 5.28 (08:00) 14.4 0 0 14.2 0.2
08-04-2019 -- (--) -- (--) -- -- (--) -- (--) -- -- -- -- 0
07-04-2019 -- (--) -- (--) -- -- (--) -- (--) -- -- -- -- --
06-04-2019 -- (--) -- (--) -- -- (--) -- (--) -- -- -- -- --
05-04-2019 -- (--) -- (--) -- -- (--) -- (--) -- 0 -- -- --
04-04-2019 14.6 (17:10) 1.7 (00:00) 8.2 15.28 (21:50) 7.5 (21:10) 1.4 1.4 0 0 0
03-04-2019 8.5 (15:20) 2 (00:00) 5.3 13.06 (15:40) 6.94 (12:50) 24.4 1 4.6 9.4 9.4
02-04-2019 13.2 (14:40) 1.8 (00:00) 7.5 8.06 (18:00) 4.44 (18:20) 3 0 0 0 3
01-04-2019 16.2 (15:50) 4.1 (00:00) 10.2 6.67 (16:30) 4.17 (16:30) 0 0 0 0 0
31-03-2019 20.7 (14:30) 2.6 (00:00) 11.7 8.33 (14:30) 5.56 (17:00) 0 0 0 0 0
30-03-2019 21.4 (13:00) 5 (00:00) 13.2 11.11 (09:00) 6.67 (08:50) 0 0 0 0 0
29-03-2019 17.6 (14:20) 0.3 (00:00) 9 7.5 (14:10) 4.44 (16:30) 0 0 0 0 0
28-03-2019 14.7 (14:10) 0.7 (00:00) 7.7 6.94 (14:50) 4.72 (15:40) 0 0 0 0 0
27-03-2019 14.1 (15:00) -0.6 (-00:0) 6.8 8.61 (17:10) 5.83 (15:10) 0 0 0 0 0
26-03-2019 13.2 (14:20) 2.8 (00:00) 8 9.44 (15:50) 6.39 (15:50) 0 0 0 0 0
25-03-2019 13.7 (13:50) 5.2 (00:00) 9.4 9.17 (16:00) 6.39 (15:50) 0 0 0 0 0
24-03-2019 17.6 (16:00) 2.7 (00:00) 10.2 6.39 (17:00) 3.89 (13:40) 0 0 0 0 0
23-03-2019 19.5 (15:30) 2.1 (00:00) 10.8 7.22 (15:10) 4.44 (14:40) 0 0 0 0 0
22-03-2019 19.4 (13:10) 0.8 (00:00) 10.1 8.61 (15:00) 4.72 (16:30) 0 0 0 0 0
21-03-2019 13.6 (13:40) -0.2 (00:00) 6.7 7.5 (15:50) 5.28 (15:50) 0 0 0 0 0
20-03-2019 12.9 (14:10) 3.2 (00:00) 8 9.44 (15:50) 6.11 (16:00) 2 2 0 0 0
19-03-2019 10.5 (15:10) 7.1 (00:00) 8.8 9.17 (09:10) 4.72 (09:10) 18.6 5.6 7.4 2.4 3.2

Gráficas

Temp. máximas Temp. mínimas Temp. medias Precipitaciones Rachas de viento máximas Velocidades máximas media en intervalos de 10 minutos

Datos horarios

Fecha y hora oficial Temperatura (ºC) Velocidad del viento (km/h) Dirección del viento Racha (km/h) Dirección de racha Precipitación (mm) Presión (hPa) Tendencia (hPa) Humedad (%)
2019-04-17 23:00:00 17.1 21 Sudoeste 37 Sudoeste 0.2 -- -- 73
2019-04-17 22:00:00 18.6 17 Sur 33 Sur 0.2 -- -- 65
2019-04-17 21:00:00 19.5 9 Sur 18 Sur 0 -- -- 54
2019-04-17 20:00:00 20.5 10 Sur 20 Sudeste 0 -- -- 51
2019-04-17 19:00:00 21.3 10 Sur 29 Sudeste 0 -- -- 48
2019-04-17 18:00:00 22.4 15 Sur 39 Sudeste 0 -- -- 45
2019-04-17 17:00:00 23.5 19 Sur 44 Sudeste 0 -- -- 42
2019-04-17 16:00:00 23 21 Sur 50 Sur 0 -- -- 48
2019-04-17 15:00:00 20.9 18 Sur 46 Sur 0 -- -- 46
2019-04-17 14:00:00 19.6 19 Sur 44 Sur 0 -- -- 51
2019-04-17 13:00:00 18.3 17 Sur 47 Sur 0 -- -- 51
2019-04-17 12:00:00 18.3 7 Noroeste 35 Sudoeste 0 -- -- 51
2019-04-17 11:00:00 17.3 12 Sur 37 Sur 0 -- -- 51
2019-04-17 10:00:00 16.8 9 Sudeste 45 Sur 0 -- -- 54
2019-04-17 09:00:00 16.8 24 Sur 45 Sur 0 -- -- 51
2019-04-17 08:00:00 16.9 10 Sur 26 Sudeste 0 -- -- 54
2019-04-17 07:00:00 16.3 4 Sudeste 14 Sur 0 -- -- 55
2019-04-17 06:00:00 15.9 7 Sur 18 Sur 0 -- -- 54
2019-04-17 05:00:00 15.7 5 Sudoeste 15 Sudeste 0 -- -- 57
2019-04-17 04:00:00 15.4 4 Nordeste 12 Norte 0 -- -- 59
2019-04-17 03:00:00 11.7 4 Este 10 Nordeste 0 -- -- 84
2019-04-17 02:00:00 11.2 0 Calma 6 Noroeste 0 -- -- 89
2019-04-17 01:00:00 11.2 0 Calma 5 Sudoeste 0 -- -- 88
2019-04-17 00:00:00 11.1 4 Norte 6 Nordeste 0 -- -- 89
2019-04-16 23:00:00 12.1 2 Sur 6 Norte 0 -- -- 83
2019-04-16 22:00:00 13.7 2 Sudoeste 8 Norte 0 -- -- 75
2019-04-16 21:00:00 14.9 7 Norte 13 Norte 0 -- -- 78
2019-04-16 20:00:00 19.3 6 Noroeste 19 Sudoeste 0 -- -- 52
2019-04-16 19:00:00 20.9 7 Sur 26 Sudoeste 0 -- -- 36
2019-04-16 18:00:00 21.3 11 Sur 26 Sudoeste 0 -- -- 34
2019-04-16 17:00:00 20.9 15 Sur 32 Sudoeste 0 -- -- 35
2019-04-16 16:00:00 21.1 9 Sudeste 24 Sudeste 0 -- -- 48
2019-04-16 15:00:00 19.8 11 Este 24 Este 0 -- -- 52
2019-04-16 14:00:00 18.4 13 Este 22 Este 0 -- -- 50
2019-04-16 13:00:00 17.3 10 Este 20 Este 0 -- -- 55
2019-04-16 12:00:00 15.2 6 Nordeste 11 Nordeste 0 -- -- 65
2019-04-16 11:00:00 12.4 3 Este 5 Este 0 -- -- 83
2019-04-16 10:00:00 8.6 0 Calma 5 Noroeste 0 -- -- 100
2019-04-16 09:00:00 6 3 Sudeste 5 Sur 0.2 -- -- 100
2019-04-16 08:00:00 4.8 3 Sudoeste 8 Noroeste 0 -- -- 99
2019-04-16 07:00:00 5.5 4 Sudoeste 6 Norte 0 -- -- 99
2019-04-16 06:00:00 6.5 0 Calma 5 Norte 0 -- -- 98
2019-04-16 05:00:00 7.8 0 Calma 4 Sudoeste 0 -- -- 94
2019-04-16 04:00:00 9.3 0 Calma 4 Este 0 -- -- 96
2019-04-16 03:00:00 10 2 Oeste 4 Sur 0 -- -- 96
2019-04-16 02:00:00 10.4 3 Noroeste 5 Noroeste 0.2 -- -- 96
2019-04-16 01:00:00 10.6 3 Sur 12 Sur 0 -- -- 94
2019-04-16 00:00:00 10.6 4 Sudeste 8 Sudeste 0.2 -- -- 96
2019-04-15 23:00:00 11 3 Sudeste 17 Noroeste 0.6 -- -- 95
2019-04-15 22:00:00 11.2 6 Noroeste -- -- -- -- -- 92
2019-04-15 21:00:00 11.5 9 Oeste 17 Noroeste 4.8 -- -- 92
2019-04-15 20:00:00 12 6 Sur 9 Sudeste 0.6 -- -- 96
2019-04-15 19:00:00 12.6 3 Sur 10 Este 0 -- -- 92
2019-04-15 18:00:00 12.6 3 Sudeste 33 Noroeste 1.6 -- -- 92
2019-04-15 17:00:00 13.3 25 Noroeste 41 Noroeste 1.2 -- -- 90
2019-04-15 16:00:00 14.4 5 Norte 43 Noroeste 6.8 -- -- 93
2019-04-15 15:00:00 15.7 19 Norte 56 Oeste 1 -- -- 87
2019-04-15 14:00:00 25.5 15 Sur 35 Sur 0 -- -- 47
2019-04-15 13:00:00 21.9 13 Sudeste 27 Sudoeste 0 -- -- 57
2019-04-15 12:00:00 19.8 17 Sur 33 Sur 0 -- -- 57
2019-04-15 11:00:00 19.2 10 Sur 30 Sur 0 -- -- 55
2019-04-15 10:00:00 19 22 Sudoeste 37 Sudoeste 0 -- -- 56
2019-04-15 09:00:00 19.2 10 Sudoeste 34 Sur 0 -- -- 55
2019-04-15 08:00:00 18.6 19 Sur 36 Sur 0 -- -- 59
2019-04-15 07:00:00 18 8 Sur 24 Sudoeste 0 -- -- 62
2019-04-15 06:00:00 17.2 9 Sudoeste 21 Sudoeste 0 -- -- 66
2019-04-15 05:00:00 12.3 7 Norte 11 Noroeste 0 -- -- 90
2019-04-15 04:00:00 10.6 2 Noroeste 9 Norte 0 -- -- 96
2019-04-15 03:00:00 11.2 0 Calma 8 Sudoeste 0 -- -- 96
2019-04-15 02:00:00 11.7 0 Calma 5 Oeste 0 -- -- 94
2019-04-15 01:00:00 12.3 3 Oeste 5 Noroeste 0 -- -- 91
2019-04-15 00:00:00 13.5 0 Calma 4 Norte 0 -- -- 89
2019-04-14 23:00:00 14.4 0 Calma 5 Norte 0 -- -- 87
2019-04-14 22:00:00 15.5 2 Oeste 6 Nordeste 0 -- -- 83
2019-04-14 21:00:00 17.5 0 Calma 15 Norte 0 -- -- 75
2019-04-14 20:00:00 18.5 8 Norte 15 Norte 0 -- -- 73
2019-04-14 19:00:00 19.6 8 Norte 13 Norte 0 -- -- 68
2019-04-14 18:00:00 21 2 Este 12 Norte 0 -- -- 61
2019-04-14 17:00:00 20.7 7 Nordeste 16 Nordeste 0 -- -- 60
2019-04-14 16:00:00 20.1 13 Nordeste 22 Nordeste 0 -- -- 66
2019-04-14 15:00:00 20.1 14 Nordeste 25 Norte 0 -- -- 64
2019-04-14 14:00:00 20.5 11 Norte 20 Nordeste 0 -- -- 59
2019-04-14 13:00:00 20.4 6 Nordeste 11 Noroeste 0 -- -- 57
2019-04-14 12:00:00 17 0 Calma 4 Nordeste 0 -- -- 67
2019-04-14 11:00:00 14.6 2 Este 4 Norte 0 -- -- 79
2019-04-14 10:00:00 12.7 0 Calma 4 Noroeste 0 -- -- 84
2019-04-14 09:00:00 9.9 0 Calma 5 Noroeste 0 -- -- 91
2019-04-14 08:00:00 9.7 0 Calma 5 Noroeste 0 -- -- 89
2019-04-14 07:00:00 10.4 3 Sur 11 Noroeste 0 -- -- 87
2019-04-14 06:00:00 10.6 5 Noroeste 9 Noroeste 0 -- -- 89
2019-04-14 05:00:00 10.4 3 Sur 5 Sudoeste 0 -- -- 88
2019-04-14 04:00:00 10.6 4 Norte 4 Norte 0 -- -- 85
2019-04-14 03:00:00 11.4 0 Calma 4 Noroeste 0 -- -- 85
2019-04-14 02:00:00 12.2 0 Calma 4 Noroeste 0 -- -- 83
2019-04-14 01:00:00 12.6 0 Calma 4 Norte 0 -- -- 82
2019-04-14 00:00:00 13.1 2 Sur 4 Este 0 -- -- 78
2019-04-13 23:00:00 13.8 0 Calma 6 Noroeste 0 -- -- 74
2019-04-13 22:00:00 14.5 4 Noroeste 7 Noroeste 0 -- -- 67
2019-04-13 21:00:00 15.8 2 Sudoeste 10 Noroeste 0 -- -- 65
2019-04-13 20:00:00 17.4 5 Noroeste 13 Norte 0 -- -- 55
2019-04-13 19:00:00 19 8 Norte 18 Norte 0 -- -- 46
2019-04-13 18:00:00 19.4 10 Norte 21 Norte 0 -- -- 45
2019-04-13 17:00:00 19.6 12 Norte 21 Norte 0 -- -- 46
2019-04-13 16:00:00 19.4 15 Norte 26 Norte 0 -- -- 48
2019-04-13 15:00:00 19.4 14 Norte 23 Norte 0 -- -- 47
2019-04-13 14:00:00 18.6 14 Norte 23 Norte 0 -- -- 48
2019-04-13 13:00:00 17.9 10 Norte 14 Norte 0 -- -- 49
2019-04-13 12:00:00 14.8 2 Norte 4 Norte 0 -- -- 58
2019-04-13 11:00:00 10.5 2 Este 5 Este 0 -- -- 79
2019-04-13 10:00:00 5.7 0 Calma 4 Este 0 -- -- 97
2019-04-13 09:00:00 2.3 0 Calma 4 Noroeste 0 -- -- 100
2019-04-13 08:00:00 0.6 0 Calma 4 Noroeste 0 -- -- 99
2019-04-13 07:00:00 1.3 0 Calma 5 Noroeste 0 -- -- 99
2019-04-13 06:00:00 2.2 2 Sur 3 Sudoeste 0 -- -- 98
2019-04-13 05:00:00 2.7 0 Calma 3 Sudoeste 0 -- -- 99
2019-04-13 04:00:00 3.4 2 Noroeste 3 Noroeste 0 -- -- 99
2019-04-13 03:00:00 3.9 0 Calma 4 Noroeste 0 -- -- 98
2019-04-13 02:00:00 5.1 3 Noroeste 4 Oeste 0 -- -- 98
2019-04-13 01:00:00 5.4 0 Calma 5 Noroeste 0 -- -- 95
2019-04-13 00:00:00 6.5 2 Oeste 5 Norte 0 -- -- 92
2019-04-12 23:00:00 7.6 3 Sudoeste 5 Sudoeste 0 -- -- 90
2019-04-12 22:00:00 9.5 2 Oeste 6 Noroeste 0 -- -- 86
2019-04-12 21:00:00 11.7 4 Noroeste 9 Noroeste 0 -- -- 75
2019-04-12 20:00:00 13.8 6 Noroeste 18 Norte 0 -- -- 69
2019-04-12 19:00:00 14.6 12 Norte 18 Norte 0 -- -- 67
2019-04-12 18:00:00 15.1 14 Norte 22 Norte 0 -- -- 65
2019-04-12 17:00:00 15.5 12 Norte 24 Norte 0 -- -- 67
2019-04-12 16:00:00 14.8 12 Norte 26 Norte 0 -- -- 66
2019-04-12 15:00:00 15.2 13 Norte 24 Norte 0 -- -- 68
2019-04-12 14:00:00 14.4 13 Norte 22 Norte 0 -- -- 66
2019-04-12 13:00:00 13.3 10 Norte 19 Nordeste 0 -- -- 70
2019-04-12 12:00:00 12.1 6 Norte 11 Norte 0 -- -- 73
2019-04-12 11:00:00 8.4 0 Calma 6 Noroeste 0 -- -- 100
2019-04-12 10:00:00 5.6 2 Sudeste 5 Sudeste 0 -- -- 100
2019-04-12 09:00:00 4.2 0 Calma 4 Este 0 -- -- 100
2019-04-12 08:00:00 4.4 2 Oeste 5 Oeste 0 -- -- 100
2019-04-12 07:00:00 4.7 3 Oeste 5 Oeste 0 -- -- 100
2019-04-12 06:00:00 5.1 2 Sudoeste 3 Este 0 -- -- 100
2019-04-12 05:00:00 5.6 2 Sudoeste 4 Sudoeste 0.2 -- -- 100
2019-04-12 04:00:00 6 2 Sudeste 5 Noroeste 0 -- -- 99
2019-04-12 03:00:00 7 2 Noroeste 4 Noroeste 0 -- -- 98
2019-04-12 02:00:00 8.1 3 Noroeste 4 Noroeste 0 -- -- 99
2019-04-12 01:00:00 8.6 0 Calma 4 Nordeste 0 -- -- 98
2019-04-12 00:00:00 8.7 3 Sudeste 4 Sudeste 0.2 -- -- 98
2019-04-11 23:00:00 8.8 0 Calma 3 Sudeste 0 -- -- 96
2019-04-11 22:00:00 8.9 2 Oeste 6 Oeste 0.2 -- -- 95
2019-04-11 21:00:00 9 3 Oeste 10 Noroeste 0.2 -- -- 94
2019-04-11 20:00:00 9.3 4 Norte 11 Norte 2.2 -- -- 95
2019-04-11 19:00:00 9.5 10 Norte 18 Noroeste 1.2 -- -- 94
2019-04-11 18:00:00 10 7 Noroeste 23 Noroeste 0.4 -- -- 91
2019-04-11 17:00:00 10.2 7 Norte 27 Noroeste 0 -- -- 90
2019-04-11 16:00:00 9.8 15 Norte 27 Noroeste 0.6 -- -- 88
2019-04-11 15:00:00 10 14 Noroeste 31 Noroeste 1 -- -- 89
2019-04-11 14:00:00 9.6 4 Nordeste 21 Noroeste 2.2 -- -- 93
2019-04-11 13:00:00 10 10 Noroeste 21 Noroeste 1.8 -- -- 89
2019-04-11 12:00:00 9.7 9 Noroeste 24 Noroeste 0.2 -- -- 89
2019-04-11 11:00:00 9.6 8 Noroeste 27 Noroeste 0.2 -- -- 85
2019-04-11 10:00:00 8.9 6 Oeste 17 Noroeste 0.4 -- -- 93
2019-04-11 09:00:00 8.1 2 Sudeste 6 Este 0.4 -- -- 96
2019-04-11 08:00:00 7.7 2 Sur 9 Sudeste 0 -- -- 96
2019-04-11 07:00:00 7.8 4 Sur 9 Sudeste 0.4 -- -- 97
2019-04-11 06:00:00 7.9 2 Este 5 Sur 0 -- -- 95
2019-04-11 05:00:00 8.1 0 Calma 8 Oeste 0 -- -- 93
2019-04-11 04:00:00 8.1 2 Sur 9 Oeste 0 -- -- 95
2019-04-11 03:00:00 8.1 5 Este 15 Oeste 0 -- -- 95
2019-04-11 02:00:00 8 5 Sudeste 8 Nordeste 0.8 -- -- 96
2019-04-11 01:00:00 8 0 Calma 5 Sudeste 0 -- -- 94
2019-04-11 00:00:00 8.8 0 Calma 15 Norte 0.4 -- -- 92
2019-04-10 23:00:00 9.3 0 Calma 8 Norte 1.6 -- -- 91
2019-04-10 22:00:00 9.9 3 Oeste 15 Noroeste 0 -- -- 84
2019-04-10 21:00:00 10.3 9 Noroeste 24 Noroeste 0 -- -- 81
2019-04-10 20:00:00 11.2 8 Noroeste 18 Norte 0 -- -- 75
2019-04-10 19:00:00 11.8 12 Noroeste 27 Norte 0 -- -- 72
2019-04-10 18:00:00 11.6 9 Noroeste 24 Norte 0 -- -- 74
2019-04-10 17:00:00 11.6 15 Norte 27 Norte 0 -- -- 75
2019-04-10 16:00:00 12.2 18 Norte 29 Norte 0 -- -- 72
2019-04-10 15:00:00 12.9 15 Norte 25 Norte 0 -- -- 70
2019-04-10 14:00:00 13.4 15 Norte 23 Nordeste 0 -- -- 73
2019-04-10 13:00:00 12.4 11 Norte 20 Norte 0 -- -- 73
2019-04-10 12:00:00 13 13 Norte 19 Norte 0 -- -- 69
2019-04-10 11:00:00 11.1 3 Nordeste 6 Nordeste 0 -- -- 87
2019-04-10 10:00:00 8.8 2 Sudeste 5 Este 0 -- -- 99
2019-04-10 09:00:00 4.7 0 Calma 3 Noroeste 0 -- -- 100
2019-04-10 08:00:00 4.5 0 Calma 6 Noroeste 0 -- -- 97
2019-04-10 07:00:00 5.3 2 Sur 6 Noroeste 0 -- -- 97
2019-04-10 06:00:00 6 2 Norte 4 Sudeste 0 -- -- 97
2019-04-10 05:00:00 7 2 Este 6 Noroeste 0 -- -- 94
2019-04-10 04:00:00 7.4 3 Norte 19 Sur 0 -- -- 94
2019-04-10 03:00:00 7.3 8 Sudeste 14 Sudeste 1 -- -- 97
2019-04-10 02:00:00 6.7 5 Nordeste 12 Noroeste 1 -- -- 97
2019-04-10 01:00:00 5.9 5 Oeste 11 Noroeste 1.2 -- -- 98
2019-04-10 00:00:00 5.8 5 Noroeste 10 Noroeste 0 -- -- 96
2019-04-09 23:00:00 5.8 3 Sudoeste 8 Oeste 0 -- -- 97
2019-04-09 22:00:00 7.1 2 Norte 5 Nordeste 0 -- -- 94
2019-04-09 21:00:00 8.9 2 Oeste 6 Este 0 -- -- 88
2019-04-09 20:00:00 9.5 0 Calma 6 Nordeste 0 -- -- 89
2019-04-09 19:00:00 8.8 6 Norte 27 Sur 0.2 -- -- 87
2019-04-09 18:00:00 8.4 17 Sudeste -- -- -- -- -- 92
2019-04-09 17:00:00 8.9 4 Sudeste 18 Sudoeste 5 -- -- 89
2019-04-09 16:00:00 9.6 5 Sudoeste 19 Noroeste 2.6 -- -- 89
2019-04-09 15:00:00 9.9 8 Sur 12 Sur 1.4 -- -- 89
2019-04-09 14:00:00 11.8 11 Oeste 35 Noroeste 2.4 -- -- 73
2019-04-09 13:00:00 16 14 Sudeste 26 Sur 0 -- -- 54
2019-04-09 12:00:00 14.3 19 Sur 35 Sur 0 -- -- 58
2019-04-09 11:00:00 14.1 14 Sur 29 Sur 0 -- -- 57
2019-04-09 10:00:00 12.8 8 Sudeste 34 Sudeste 0 -- -- 61
2019-04-09 09:00:00 10.7 19 Sudeste 33 Sudeste 0 -- -- 66
2019-04-09 08:00:00 10.2 19 Sudeste 33 Sudeste 0 -- -- 66
2019-04-09 07:00:00 9.4 7 Sur 15 Sur 0 -- -- 65
2019-04-09 06:00:00 9.5 6 Sur 27 Sudeste 0 -- -- 66
2019-04-09 05:00:00 7.6 5 Sur 13 Sudeste 0 -- -- 74
2019-04-09 04:00:00 7.3 5 Nordeste 12 Noroeste 0 -- -- 79
2019-04-09 03:00:00 4.9 4 Oeste 7 Sudoeste 0 -- -- 92
2019-04-09 02:00:00 6.2 0 Calma 5 Norte 0 -- -- 90
2019-04-09 01:00:00 7.1 3 Noroeste -- -- -- -- -- 90
2019-04-09 00:00:00 8.4 2 Sudoeste 10 Oeste 0 -- -- 87
2019-04-08 23:00:00 9.8 9 Oeste 14 Este 0 -- -- 82
2019-04-08 22:00:00 10.3 4 Noroeste 9 Noroeste 0 -- -- 78
2019-04-08 21:00:00 11.1 5 Oeste 13 Norte 0 -- -- 74
2019-04-08 20:00:00 12.3 7 Norte 27 Este 0 -- -- 68
2019-04-08 19:00:00 12.9 11 Nordeste 21 Nordeste 0 -- -- 69
2019-04-08 18:00:00 13.6 12 Norte 22 Norte 0 -- -- 63
2019-04-08 17:00:00 13.8 7 Nordeste 21 Norte 0 -- -- 63
2019-04-08 16:00:00 13.5 14 Nordeste 23 Norte 0 -- -- 67
2019-04-08 15:00:00 13.5 7 Noroeste 13 Oeste 0 -- -- 68
2019-04-08 14:00:00 12.5 3 Sur 9 Sur 0.2 -- -- 78
2019-04-08 13:00:00 -- -- -- -- -- -- -- -- --
2019-04-08 12:00:00 -- -- -- -- -- -- -- -- --
2019-04-08 11:00:00 -- -- -- -- -- -- -- -- --
2019-04-08 10:00:00 -- -- -- -- -- -- -- -- --
2019-04-08 09:00:00 -- -- -- -- -- -- -- -- --
2019-04-08 08:00:00 -- -- -- -- -- -- -- -- --
2019-04-08 07:00:00 -- -- -- -- -- -- -- -- --
2019-04-08 06:00:00 -- -- -- -- -- -- -- -- --
2019-04-08 05:00:00 -- -- -- -- -- -- -- -- --
2019-04-08 04:00:00 -- -- -- -- -- -- -- -- --
2019-04-08 03:00:00 -- -- -- -- -- -- -- -- --
2019-04-08 02:00:00 -- -- -- -- -- -- -- -- --
2019-04-08 01:00:00 -- -- -- -- -- -- -- -- --
2019-04-08 00:00:00 -- -- -- -- -- -- -- -- --
2019-04-07 23:00:00 -- -- -- -- -- -- -- -- --
2019-04-07 22:00:00 -- -- -- -- -- -- -- -- --
2019-04-07 21:00:00 -- -- -- -- -- -- -- -- --
2019-04-07 20:00:00 -- -- -- -- -- -- -- -- --
2019-04-07 19:00:00 -- -- -- -- -- -- -- -- --
2019-04-07 18:00:00 -- -- -- -- -- -- -- -- --
2019-04-07 17:00:00 -- -- -- -- -- -- -- -- --
2019-04-07 16:00:00 -- -- -- -- -- -- -- -- --
2019-04-07 15:00:00 -- -- -- -- -- -- -- -- --
2019-04-07 14:00:00 -- -- -- -- -- -- -- -- --
2019-04-07 13:00:00 -- -- -- -- -- -- -- -- --
2019-04-07 12:00:00 -- -- -- -- -- -- -- -- --
2019-04-07 11:00:00 -- -- -- -- -- -- -- -- --
2019-04-07 10:00:00 -- -- -- -- -- -- -- -- --
2019-04-07 09:00:00 -- -- -- -- -- -- -- -- --
2019-04-07 08:00:00 -- -- -- -- -- -- -- -- --
2019-04-07 07:00:00 -- -- -- -- -- -- -- -- --
2019-04-07 06:00:00 -- -- -- -- -- -- -- -- --
2019-04-07 05:00:00 -- -- -- -- -- -- -- -- --
2019-04-07 04:00:00 -- -- -- -- -- -- -- -- --
2019-04-07 03:00:00 -- -- -- -- -- -- -- -- --
2019-04-07 02:00:00 -- -- -- -- -- -- -- -- --
2019-04-07 01:00:00 -- -- -- -- -- -- -- -- --
2019-04-07 00:00:00 -- -- -- -- -- -- -- -- --
2019-04-06 23:00:00 -- -- -- -- -- -- -- -- --
2019-04-06 22:00:00 -- -- -- -- -- -- -- -- --
2019-04-06 21:00:00 -- -- -- -- -- -- -- -- --
2019-04-06 20:00:00 -- -- -- -- -- -- -- -- --
2019-04-06 19:00:00 -- -- -- -- -- -- -- -- --
2019-04-06 18:00:00 -- -- -- -- -- -- -- -- --
2019-04-06 17:00:00 -- -- -- -- -- -- -- -- --
2019-04-06 16:00:00 -- -- -- -- -- -- -- -- --
2019-04-06 15:00:00 -- -- -- -- -- -- -- -- --
2019-04-06 14:00:00 -- -- -- -- -- -- -- -- --
2019-04-06 13:00:00 -- -- -- -- -- -- -- -- --
2019-04-06 12:00:00 -- -- -- -- -- -- -- -- --
2019-04-06 11:00:00 -- -- -- -- -- -- -- -- --
2019-04-06 10:00:00 -- -- -- -- -- -- -- -- --
2019-04-06 09:00:00 -- -- -- -- -- -- -- -- --
2019-04-06 08:00:00 -- -- -- -- -- -- -- -- --
2019-04-06 07:00:00 -- -- -- -- -- -- -- -- --
2019-04-06 06:00:00 -- -- -- -- -- -- -- -- --
2019-04-06 05:00:00 -- -- -- -- -- -- -- -- --
2019-04-06 04:00:00 -- -- -- -- -- -- -- -- --
2019-04-06 03:00:00 -- -- -- -- -- -- -- -- --
2019-04-06 02:00:00 -- -- -- -- -- -- -- -- --
2019-04-06 01:00:00 -- -- -- -- -- -- -- -- --
2019-04-06 00:00:00 -- -- -- -- -- -- -- -- --
2019-04-05 23:00:00 -- -- -- -- -- -- -- -- --
2019-04-05 22:00:00 -- -- -- -- -- -- -- -- --
2019-04-05 21:00:00 -- -- -- -- -- -- -- -- --
2019-04-05 20:00:00 -- -- -- -- -- -- -- -- --
2019-04-05 19:00:00 -- -- -- -- -- -- -- -- --
2019-04-05 18:00:00 -- -- -- -- -- -- -- -- --
2019-04-05 17:00:00 -- -- -- -- -- -- -- -- --
2019-04-05 16:00:00 -- -- -- -- -- -- -- -- --
2019-04-05 15:00:00 -- -- -- -- -- -- -- -- --
2019-04-05 14:00:00 -- -- -- -- -- -- -- -- --
2019-04-05 13:00:00 -- -- -- -- -- -- -- -- --
2019-04-05 12:00:00 -- -- -- -- -- -- -- -- --
2019-04-05 11:00:00 -- -- -- -- -- -- -- -- --
2019-04-05 10:00:00 10.4 13 Sur 31 Sur 0 -- -- 65
2019-04-05 09:00:00 8.9 6 Nordeste 21 Sur 0 -- -- 71
2019-04-05 08:00:00 9.1 11 Sur 32 Sudoeste 0 -- -- 66
2019-04-05 07:00:00 9.2 18 Sur 42 Sudoeste 0 -- -- 65
2019-04-05 06:00:00 9.3 22 Sur 44 Sur 0 -- -- 64
2019-04-05 05:00:00 9.4 16 Sur 44 Sur 0 -- -- 64
2019-04-05 04:00:00 9.4 19 Sur 48 Sudoeste 0 -- -- 63
2019-04-05 03:00:00 9.4 22 Sur 44 Sur 0 -- -- 63
2019-04-05 02:00:00 9.3 21 Sur 39 Sudoeste 0 -- -- 63
2019-04-05 01:00:00 9.1 21 Sur 44 Sur 0 -- -- 65
2019-04-05 00:00:00 9.4 19 Sur 46 Sur 0 -- -- 64
2019-04-04 23:00:00 9.6 23 Sur 46 Sur 0 -- -- 63
2019-04-04 22:00:00 10.1 22 Sur 55 Sur 0 -- -- 60
2019-04-04 21:00:00 12 22 Sur 43 Sudoeste 0 -- -- 47
2019-04-04 20:00:00 13.1 17 Sur 32 Sur 0 -- -- 37
2019-04-04 19:00:00 13.4 17 Sur 40 Sur 0 -- -- 38
2019-04-04 18:00:00 13.8 13 Sudoeste 31 Sudoeste 0 -- -- 40
2019-04-04 17:00:00 14.4 18 Sudoeste 35 Sudoeste 0 -- -- 37
2019-04-04 16:00:00 14.5 17 Sur 36 Sur 0 -- -- 41
2019-04-04 15:00:00 14 18 Sudoeste 33 Sudoeste 0 -- -- 36
2019-04-04 14:00:00 13.1 21 Sur 36 Sudeste 0 -- -- 41
2019-04-04 13:00:00 11.6 12 Sur 23 Sur 0 -- -- 51
2019-04-04 12:00:00 10.3 7 Sur 13 Sur 0 -- -- 56
2019-04-04 11:00:00 8 4 Sudeste 12 Sudeste 0 -- -- 69
2019-04-04 10:00:00 4.7 2 Noroeste 5 Noroeste 0 -- -- 93
2019-04-04 09:00:00 3.3 2 Oeste 6 Norte 0 -- -- 95
2019-04-04 08:00:00 2.7 3 Noroeste 7 Sudoeste 0 -- -- 96
2019-04-04 07:00:00 3 3 Oeste 12 Noroeste 0 -- -- 93
2019-04-04 06:00:00 3.2 0 Calma 22 Norte 0.6 -- -- 94
2019-04-04 05:00:00 3.1 3 Sudoeste 16 Sur 0.2 -- -- 94
2019-04-04 04:00:00 3.1 6 Este 31 Oeste 0.4 -- -- 92
2019-04-04 03:00:00 3 5 Sudeste 11 Este 0 -- -- 89
2019-04-04 02:00:00 2.7 4 Sudeste 14 Oeste 0.2 -- -- 90
2019-04-04 01:00:00 2 7 Oeste 14 Sudeste 0 -- -- 96
2019-04-04 00:00:00 2 11 Sudeste 19 Sudeste 2.6 -- -- 94
2019-04-03 23:00:00 3.2 5 Sur 15 Sudeste 2.6 -- -- 96
2019-04-03 22:00:00 3.8 4 Sur 24 Oeste 1.2 -- -- 93
2019-04-03 21:00:00 4.3 14 Oeste 40 Oeste 1.2 -- -- 85
2019-04-03 20:00:00 4.4 10 Sudeste 15 Sudeste 0.8 -- -- 92
2019-04-03 19:00:00 4.6 6 Oeste 30 Norte 1 -- -- 89
2019-04-03 18:00:00 5.2 8 Sudoeste 25 Oeste 0.4 -- -- 87
2019-04-03 17:00:00 4.6 12 Noroeste 44 Oeste 3.4 -- -- 87
2019-04-03 16:00:00 6.3 17 Oeste 47 Noroeste 0.6 -- -- 77
2019-04-03 15:00:00 7.3 7 Oeste 28 Noroeste 0.6 -- -- 84
2019-04-03 14:00:00 5.6 14 Sudoeste 37 Oeste 2.4 -- -- 82
2019-04-03 13:00:00 4.4 22 Noroeste 42 Noroeste 2 -- -- 90
2019-04-03 12:00:00 7.4 8 Sudoeste 41 Oeste 1 -- -- 80
2019-04-03 11:00:00 6.9 11 Oeste 30 Noroeste 0.8 -- -- 79
2019-04-03 10:00:00 6 6 Este 15 Norte 1.6 -- -- 91
2019-04-03 09:00:00 5.7 6 Nordeste 26 Noroeste 0.8 -- -- 93
2019-04-03 08:00:00 6.1 18 Noroeste 31 Noroeste 0.4 -- -- 87
2019-04-03 07:00:00 6.8 12 Noroeste 24 Noroeste 0 -- -- 88
2019-04-03 06:00:00 7.2 9 Noroeste 34 Oeste 0 -- -- 85
2019-04-03 05:00:00 7.4 18 Noroeste 36 Noroeste 0.2 -- -- 86
2019-04-03 04:00:00 7.9 4 Oeste 18 Oeste 0 -- -- 84
2019-04-03 03:00:00 7.6 0 Calma 9 Sudeste 0 -- -- 87
2019-04-03 02:00:00 7.9 2 Sudoeste 20 Noroeste 0 -- -- 88
2019-04-03 01:00:00 7.8 7 Oeste 22 Noroeste 0.8 -- -- 95
2019-04-03 00:00:00 8.1 4 Noroeste 27 Noroeste 0.2 -- -- 91
2019-04-02 23:00:00 8.4 12 Noroeste 24 Oeste 0.8 -- -- 95
2019-04-02 22:00:00 8.7 8 Noroeste 24 Noroeste 0.4 -- -- 94
2019-04-02 21:00:00 9.2 3 Norte 10 Noroeste 1 -- -- 94
2019-04-02 20:00:00 9.6 2 Oeste 12 Oeste 0.4 -- -- 93
2019-04-02 19:00:00 10.3 5 Noroeste 26 Noroeste 0.2 -- -- 91
2019-04-02 18:00:00 11.7 13 Noroeste 29 Noroeste 0 -- -- 76
2019-04-02 17:00:00 12 12 Noroeste 23 Norte 0 -- -- 75
2019-04-02 16:00:00 11.9 10 Noroeste 24 Noroeste 0 -- -- 78
2019-04-02 15:00:00 12.8 11 Noroeste 22 Noroeste 0 -- -- 75
2019-04-02 14:00:00 12.8 9 Noroeste 20 Noroeste 0 -- -- 78
2019-04-02 13:00:00 11.5 5 Este 10 Este 0 -- -- 88
2019-04-02 12:00:00 8.4 3 Sudoeste 7 Norte 0 -- -- 96
2019-04-02 11:00:00 6.5 5 Norte 11 Norte 0 -- -- 100
2019-04-02 10:00:00 5.1 0 Calma 6 Oeste 0 -- -- 100
2019-04-02 09:00:00 3 4 Nordeste 8 Norte 0 -- -- 100
2019-04-02 08:00:00 1.9 2 Oeste 5 Norte 0 -- -- 100
2019-04-02 07:00:00 2.6 2 Oeste 6 Norte 0 -- -- 99
2019-04-02 06:00:00 2.7 2 Oeste 4 Norte 0 -- -- 98
2019-04-02 05:00:00 3.8 0 Calma 4 Noroeste 0 -- -- 98
2019-04-02 04:00:00 4.5 0 Calma 5 Noroeste 0 -- -- 98
2019-04-02 03:00:00 5.2 2 Oeste 5 Noroeste 0 -- -- 95
2019-04-02 02:00:00 6.1 0 Calma 5 Noroeste 0 -- -- 95
2019-04-02 01:00:00 6.8 3 Noroeste 5 Sudoeste 0 -- -- 94
2019-04-02 00:00:00 7.7 2 Sudoeste 6 Noroeste 0 -- -- 90
2019-04-01 23:00:00 8.5 0 Calma 6 Sudeste 0 -- -- 87
2019-04-01 22:00:00 10.2 0 Calma 6 Sudoeste 0 -- -- 86
2019-04-01 21:00:00 12.4 2 Sudoeste 13 Oeste 0 -- -- 77
2019-04-01 20:00:00 14.1 8 Noroeste 17 Norte 0 -- -- 73
2019-04-01 19:00:00 14.6 11 Nordeste 20 Noroeste 0 -- -- 72
2019-04-01 18:00:00 15.4 9 Norte 19 Norte 0 -- -- 66
2019-04-01 17:00:00 15 10 Nordeste 24 Norte 0 -- -- 69
2019-04-01 16:00:00 16 10 Norte 21 Norte 0 -- -- 65
2019-04-01 15:00:00 15.5 10 Nordeste 18 Norte 0 -- -- 68
2019-04-01 14:00:00 15.8 8 Norte 19 Nordeste 0 -- -- 58
2019-04-01 13:00:00 15.5 8 Norte 18 Noroeste 0 -- -- 62
2019-04-01 12:00:00 14.5 5 Nordeste 10 Norte 0 -- -- 61
2019-04-01 11:00:00 12.2 0 Calma 5 Oeste 0 -- -- 67
2019-04-01 10:00:00 7.9 2 Norte 5 Noroeste 0 -- -- 92
2019-04-01 09:00:00 6.2 3 Norte 6 Nordeste 0 -- -- 91
2019-04-01 08:00:00 5.8 3 Oeste 5 Oeste 0 -- -- 93
2019-04-01 07:00:00 5.4 2 Sudoeste 5 Este 0 -- -- 91
2019-04-01 06:00:00 4.8 2 Sur 6 Sudoeste 0 -- -- 92
2019-04-01 05:00:00 4.1 3 Sudeste 9 Sudeste 0 -- -- 93
2019-04-01 04:00:00 4.8 0 Calma 6 Sudeste 0 -- -- 91
2019-04-01 03:00:00 5.3 0 Calma 4 Norte 0 -- -- 87
2019-04-01 02:00:00 6 2 Sudoeste 4 Sudoeste 0 -- -- 84
2019-04-01 01:00:00 6.9 3 Sudoeste 6 Noroeste 0 -- -- 81
2019-04-01 00:00:00 8.3 0 Calma 6 Norte 0 -- -- 75
2019-03-31 23:00:00 9.5 4 Sudoeste 5 Sudoeste 0 -- -- 69
2019-03-31 22:00:00 12.2 0 Calma 11 Noroeste 0 -- -- 58
2019-03-31 21:00:00 14.6 6 Noroeste 14 Norte 0 -- -- 51
2019-03-31 20:00:00 16.2 10 Nordeste 26 Norte 0 -- -- 47
2019-03-31 19:00:00 17.6 17 Norte 27 Nordeste 0 -- -- 41
2019-03-31 18:00:00 19.3 16 Nordeste -- -- -- -- -- 41
2019-03-31 17:00:00 19.7 20 Nordeste -- -- -- -- -- 39
2019-03-31 16:00:00 19.9 14 Nordeste 30 Este 0 -- -- 34
2019-03-31 15:00:00 19.9 13 Este 30 Este 0 -- -- 35
2019-03-31 14:00:00 20.2 4 Sudoeste 14 Sudoeste 0 -- -- 36
2019-03-31 13:00:00 18.7 2 Oeste 9 Norte 0 -- -- 46
2019-03-31 12:00:00 15.8 3 Norte 6 Nordeste 0 -- -- 59
2019-03-31 11:00:00 11.3 2 Este 5 Este 0 -- -- 84
2019-03-31 10:00:00 6.6 2 Este 4 Nordeste 0 -- -- 100
2019-03-31 09:00:00 3.2 0 Calma 5 Norte 0 -- -- 100
2019-03-31 08:00:00 2.7 3 Sudoeste 5 Sudoeste 0 -- -- 98
2019-03-31 07:00:00 3.8 3 Oeste 5 Noroeste 0 -- -- 97
2019-03-31 06:00:00 4.6 2 Norte 5 Noroeste 0 -- -- 97
2019-03-31 05:00:00 5.8 0 Calma 3 Sudeste 0 -- -- 98
2019-03-31 03:00:00 7.5 0 Calma 3 Norte 0 -- -- 95
2019-03-31 01:00:00 8.2 0 Calma 4 Sudeste 0 -- -- 92
2019-03-31 00:00:00 8.8 3 Norte 5 Norte 0 -- -- 91
2019-03-30 23:00:00 9.9 0 Calma 5 Norte 0 -- -- 89
2019-03-30 22:00:00 11.2 0 Calma 4 Noroeste 0 -- -- 87
2019-03-30 21:00:00 12.2 0 Calma 8 Sudoeste 0 -- -- 81
2019-03-30 20:00:00 13.7 3 Nordeste 13 Noroeste 0 -- -- 77
2019-03-30 19:00:00 15.9 8 Noroeste 14 Noroeste 0 -- -- 73
2019-03-30 18:00:00 17 5 Norte 15 Oeste 0 -- -- 68
2019-03-30 17:00:00 16.5 9 Noroeste 21 Oeste 0 -- -- 70
2019-03-30 16:00:00 17.6 16 Noroeste 22 Noroeste 0 -- -- 68
2019-03-30 15:00:00 18.4 15 Norte 27 Norte 0 -- -- 60
2019-03-30 14:00:00 21.2 8 Nordeste 15 Nordeste 0 -- -- 32
2019-03-30 13:00:00 21.4 7 Sur 17 Sur 0 -- -- 32
2019-03-30 12:00:00 19.9 6 Este 13 Este 0 -- -- 37
2019-03-30 11:00:00 18.1 4 Noroeste 16 Sudeste 0 -- -- 38
2019-03-30 10:00:00 16.7 9 Este 32 Sudeste 0 -- -- 46
2019-03-30 09:00:00 14.9 23 Sudeste 40 Sudeste 0 -- -- 45
2019-03-30 08:00:00 13.4 17 Sudeste 35 Sudeste 0 -- -- 48
2019-03-30 07:00:00 13.1 20 Este 33 Este 0 -- -- 46
2019-03-30 06:00:00 13 16 Este 24 Este 0 -- -- 45
2019-03-30 05:00:00 13.7 6 Sudeste 30 Sur 0 -- -- 45
2019-03-30 04:00:00 13 11 Sudeste 33 Sur 0 -- -- 48
2019-03-30 03:00:00 8.2 5 Sudoeste 17 Oeste 0 -- -- 71
2019-03-30 02:00:00 5.2 3 Norte 7 Nordeste 0 -- -- 97
2019-03-30 01:00:00 5.7 2 Sudoeste 6 Este 0 -- -- 95
2019-03-30 00:00:00 6.6 0 Calma 5 Noroeste 0 -- -- 92
2019-03-29 23:00:00 7.7 0 Calma 3 Sudoeste 0 -- -- 89
2019-03-29 22:00:00 8.9 2 Norte 5 Noroeste 0 -- -- 87
2019-03-29 21:00:00 10.3 0 Calma 4 Sudoeste 0 -- -- 81
2019-03-29 20:00:00 12.2 2 Norte 14 Oeste 0 -- -- 77
2019-03-29 19:00:00 14.2 10 Noroeste 17 Oeste 0 -- -- 70
2019-03-29 18:00:00 16 9 Noroeste 22 Norte 0 -- -- 63
2019-03-29 17:00:00 16.6 13 Norte 24 Norte 0 -- -- 62
2019-03-29 16:00:00 17.4 12 Norte 22 Norte 0 -- -- 58
2019-03-29 15:00:00 17.3 14 Norte 27 Norte 0 -- -- 56
2019-03-29 14:00:00 17.4 15 Norte 24 Norte 0 -- -- 56
2019-03-29 13:00:00 17.3 13 Norte 20 Norte 0 -- -- 55
2019-03-29 12:00:00 16.3 9 Norte 14 Norte 0 -- -- 55
2019-03-29 11:00:00 12.3 4 Noroeste 7 Oeste 0 -- -- 72
2019-03-29 10:00:00 7.3 0 Calma 4 Sudeste 0 -- -- 100
2019-03-29 09:00:00 2.9 0 Calma 3 Este 0 -- -- 100
2019-03-29 08:00:00 0.5 0 Calma 3 Sudoeste 0 -- -- 100
2019-03-29 07:00:00 0.5 3 Sudoeste 4 Sudoeste 0 -- -- 99
2019-03-29 06:00:00 0.8 2 Sudoeste 5 Oeste 0 -- -- 99
2019-03-29 05:00:00 1.2 0 Calma 4 Sudoeste 0 -- -- 99
2019-03-29 04:00:00 1.8 0 Calma 3 Sudoeste 0 -- -- 98
2019-03-29 03:00:00 2.5 0 Calma 4 Oeste 0 -- -- 98
2019-03-29 02:00:00 3.3 0 Calma 3 Sudoeste 0 -- -- 96
2019-03-29 01:00:00 3.7 2 Noroeste 5 Norte 0 -- -- 96
2019-03-29 00:00:00 4.8 3 Noroeste 4 Noroeste 0 -- -- 96
2019-03-28 23:00:00 5.5 0 Calma 5 Noroeste 0 -- -- 91
2019-03-28 22:00:00 6.9 2 Noroeste 4 Norte 0 -- -- 91
2019-03-28 21:00:00 8.5 2 Norte 4 Este 0 -- -- 85
2019-03-28 20:00:00 10.2 0 Calma 17 Norte 0 -- -- 79
2019-03-28 19:00:00 11.5 10 Norte 23 Norte 0 -- -- 75
2019-03-28 18:00:00 12.9 14 Norte 23 Norte 0 -- -- 69
2019-03-28 17:00:00 13.8 16 Norte 25 Norte 0 -- -- 66
2019-03-28 16:00:00 14.4 17 Norte 24 Norte 0 -- -- 67
2019-03-28 15:00:00 14.4 15 Nordeste 25 Nordeste 0 -- -- 66
2019-03-28 14:00:00 14.4 11 Norte 23 Norte 0 -- -- 63
2019-03-28 13:00:00 13.8 10 Norte 23 Norte 0 -- -- 61
2019-03-28 12:00:00 13.1 12 Norte 21 Norte 0 -- -- 69
2019-03-28 11:00:00 11.8 3 Nordeste 8 Sudeste 0 -- -- 71
2019-03-28 10:00:00 7.9 3 Sudeste 5 Nordeste 0 -- -- 88
2019-03-28 09:00:00 3.9 2 Nordeste 4 Nordeste 0 -- -- 99
2019-03-28 08:00:00 1 0 Calma 6 Noroeste 0 -- -- 98
2019-03-28 07:00:00 0.8 0 Calma 4 Noroeste 0 -- -- 98
2019-03-28 06:00:00 0.9 0 Calma 4 Noroeste 0 -- -- 98
2019-03-28 05:00:00 1.2 0 Calma 4 Noroeste 0 -- -- 98
2019-03-28 04:00:00 1.5 0 Calma 3 Norte 0 -- -- 97
2019-03-28 03:00:00 2 0 Calma 4 Nordeste 0 -- -- 97
2019-03-28 02:00:00 2.4 2 Nordeste 4 Nordeste 0 -- -- 94
2019-03-28 01:00:00 2.8 0 Calma 6 Noroeste 0 -- -- 94
2019-03-28 00:00:00 3.7 2 Sur 4 Este 0 -- -- 90
2019-03-27 23:00:00 4.7 2 Noroeste 4 Noroeste 0 -- -- 90
2019-03-27 22:00:00 6.2 0 Calma 4 Noroeste 0 -- -- 83
2019-03-27 21:00:00 8.2 3 Noroeste 16 Noroeste 0 -- -- 78
2019-03-27 20:00:00 9.1 9 Noroeste 17 Noroeste 0 -- -- 73
2019-03-27 19:00:00 10.2 12 Norte 25 Norte 0 -- -- 70
2019-03-27 18:00:00 11.5 17 Norte 31 Norte 0 -- -- 68
2019-03-27 17:00:00 12.7 19 Norte 30 Norte 0 -- -- 64
2019-03-27 16:00:00 13.5 19 Norte 30 Norte 0 -- -- 64
2019-03-27 15:00:00 14.1 19 Norte 30 Norte 0 -- -- 64
2019-03-27 14:00:00 14 16 Norte 29 Nordeste 0 -- -- 62
2019-03-27 13:00:00 13.6 18 Norte 28 Norte 0 -- -- 61
2019-03-27 12:00:00 13 10 Norte 19 Nordeste 0 -- -- 61
2019-03-27 11:00:00 11.3 4 Este 7 Este 0 -- -- 71
2019-03-27 10:00:00 7.3 3 Este 6 Sur 0 -- -- 86
2019-03-27 09:00:00 3.1 0 Calma 4 Sur 0 -- -- 95
2019-03-27 08:00:00 -0.1 0 Calma 3 Norte 0 -- -- 97
2019-03-27 07:00:00 -0.3 0 Calma 5 Sudoeste 0 -- -- 98
2019-03-27 06:00:00 -0.3 2 Sudoeste 6 Noroeste 0 -- -- 96
2019-03-27 05:00:00 0.2 2 Noroeste 5 Nordeste 0 -- -- 97
2019-03-27 04:00:00 0.9 0 Calma 5 Noroeste 0 -- -- 97
2019-03-27 03:00:00 0.9 0 Calma 6 Norte 0 -- -- 95
2019-03-27 02:00:00 1.5 0 Calma 4 Sudoeste 0 -- -- 94
2019-03-27 01:00:00 2.3 2 Noroeste 4 Noroeste 0 -- -- 92
2019-03-27 00:00:00 2.8 0 Calma 4 Noroeste 0 -- -- 90
2019-03-26 23:00:00 3.6 0 Calma 5 Sudoeste 0 -- -- 87
2019-03-26 22:00:00 4.5 0 Calma 5 Noroeste 0 -- -- 84
2019-03-26 21:00:00 6.1 2 Sur 9 Noroeste 0 -- -- 78
2019-03-26 20:00:00 8.2 7 Noroeste 17 Norte 0 -- -- 71
2019-03-26 19:00:00 9.8 11 Noroeste 23 Norte 0 -- -- 67
2019-03-26 18:00:00 11.3 12 Noroeste 23 Norte 0 -- -- 61
2019-03-26 17:00:00 12.3 9 Norte 31 Nordeste 0 -- -- 59
2019-03-26 16:00:00 12.3 23 Nordeste 34 Norte 0 -- -- 56
2019-03-26 15:00:00 13 17 Norte 29 Norte 0 -- -- 52
2019-03-26 14:00:00 12.9 16 Norte 28 Norte 0 -- -- 56
2019-03-26 13:00:00 12.1 16 Norte 28 Norte 0 -- -- 57
2019-03-26 12:00:00 11.9 15 Norte 23 Norte 0 -- -- 54
2019-03-26 11:00:00 11.2 13 Norte 26 Nordeste 0 -- -- 57
2019-03-26 10:00:00 10.4 10 Nordeste 18 Nordeste 0 -- -- 55
2019-03-26 09:00:00 8.6 2 Oeste 7 Oeste 0 -- -- 73
2019-03-26 08:00:00 6 2 Sudoeste 16 Nordeste 0 -- -- 78
2019-03-26 07:00:00 6.7 10 Norte 19 Norte 0 -- -- 74
2019-03-26 06:00:00 7.9 9 Norte 19 Nordeste 0 -- -- 74
2019-03-26 05:00:00 7.1 4 Noroeste 7 Noroeste 0 -- -- 88
2019-03-26 04:00:00 6.7 3 Noroeste 6 Oeste 0 -- -- 92
2019-03-26 03:00:00 6.5 2 Oeste 6 Este 0 -- -- 93
2019-03-26 02:00:00 6.3 3 Este 5 Sudoeste 0 -- -- 93
2019-03-26 01:00:00 5.8 2 Sur 10 Noroeste 0 -- -- 93
2019-03-26 00:00:00 5.2 4 Sudoeste 7 Sudoeste 0 -- -- 92
2019-03-25 23:00:00 6 3 Sur 5 Noroeste 0 -- -- 87
2019-03-25 22:00:00 6.9 3 Sudoeste 9 Norte 0 -- -- 84
2019-03-25 21:00:00 7.3 9 Norte 16 Noroeste 0 -- -- 83
2019-03-25 20:00:00 8.4 8 Norte 19 Norte 0 -- -- 79
2019-03-25 19:00:00 9.8 15 Norte 27 Norte 0 -- -- 76
2019-03-25 18:00:00 11.5 14 Norte 26 Norte 0 -- -- 69
2019-03-25 17:00:00 12.4 16 Norte 32 Norte 0 -- -- 65
2019-03-25 16:00:00 12.9 22 Norte 33 Norte 0 -- -- 66
2019-03-25 15:00:00 13.3 18 Norte 33 Norte 0 -- -- 58
2019-03-25 14:00:00 13.4 14 Nordeste 26 Nordeste 0 -- -- 59
2019-03-25 13:00:00 12.9 15 Norte 28 Norte 0 -- -- 66
2019-03-25 12:00:00 11.9 13 Nordeste 24 Nordeste 0 -- -- 70
2019-03-25 11:00:00 12.5 12 Nordeste 23 Nordeste 0 -- -- 61
2019-03-25 10:00:00 12.1 12 Nordeste 17 Nordeste 0 -- -- 73
2019-03-25 09:00:00 10.2 9 Norte 17 Norte 0 -- -- 86
2019-03-25 08:00:00 10 5 Noroeste 8 Noroeste 0 -- -- 89
2019-03-25 07:00:00 10 0 Calma 9 Noroeste 0 -- -- 89
2019-03-25 06:00:00 10.2 4 Norte 10 Norte 0 -- -- 88
2019-03-25 05:00:00 10.1 5 Nordeste 13 Norte 0 -- -- 90
2019-03-25 04:00:00 10.2 7 Norte 13 Norte 0 -- -- 92
2019-03-25 03:00:00 9.7 4 Noroeste 5 Norte 0 -- -- 96
2019-03-25 02:00:00 9.8 0 Calma 4 Noroeste 0 -- -- 94
2019-03-25 01:00:00 10 3 Oeste 5 Noroeste 0 -- -- 94
2019-03-25 00:00:00 10.3 0 Calma 12 Noroeste 0 -- -- 93
2019-03-24 23:00:00 10.7 5 Norte 12 Oeste 0 -- -- 91
2019-03-24 22:00:00 10.4 6 Noroeste 11 Norte 0 -- -- 93
2019-03-24 21:00:00 11.4 8 Oeste 15 Oeste 0 -- -- 88
2019-03-24 20:00:00 12.3 9 Oeste 17 Noroeste 0 -- -- 87
2019-03-24 19:00:00 13.3 10 Noroeste 21 Norte 0 -- -- 82
2019-03-24 18:00:00 14.4 8 Noroeste 18 Norte 0 -- -- 80
2019-03-24 17:00:00 15.7 12 Nordeste 23 Nordeste 0 -- -- 78
2019-03-24 16:00:00 17.6 8 Norte 21 Norte 0 -- -- 66
2019-03-24 15:00:00 17.3 11 Nordeste 22 Nordeste 0 -- -- 67
2019-03-24 14:00:00 17.3 12 Nordeste 20 Nordeste 0 -- -- 68
2019-03-24 13:00:00 16.4 7 Nordeste 12 Norte 0 -- -- 66
2019-03-24 12:00:00 15.4 4 Nordeste 13 Nordeste 0 -- -- 73
2019-03-24 11:00:00 13.3 3 Norte 5 Norte 0 -- -- 78
2019-03-24 10:00:00 9.2 0 Calma 5 Nordeste 0 -- -- 98
2019-03-24 09:00:00 5.4 0 Calma 2 Este 0 -- -- 100
2019-03-24 08:00:00 3 0 Calma 4 Noroeste 0 -- -- 100
2019-03-24 07:00:00 2.9 0 Calma 4 Noroeste 0 -- -- 99
2019-03-24 06:00:00 3.3 3 Sudoeste 6 Noroeste 0 -- -- 98
2019-03-24 05:00:00 4.4 0 Calma 2 Sur 0 -- -- 98
2019-03-24 04:00:00 5 0 Calma 4 Norte 0 -- -- 98
2019-03-24 03:00:00 5.9 2 Norte 4 Noroeste 0 -- -- 97
2019-03-24 02:00:00 6 0 Calma 5 Noroeste 0 -- -- 95
2019-03-24 01:00:00 6.8 2 Sur 4 Sudeste 0 -- -- 93
2019-03-24 00:00:00 7.5 3 Sudeste 4 Este 0 -- -- 90
2019-03-23 23:00:00 8.4 0 Calma 5 Noroeste 0 -- -- 89
2019-03-23 22:00:00 9.4 3 Sur 5 Sur 0 -- -- 83
2019-03-23 21:00:00 10.6 2 Oeste 5 Nordeste 0 -- -- 82
2019-03-23 20:00:00 12.9 0 Calma 17 Oeste 0 -- -- 77
2019-03-23 19:00:00 14.6 12 Oeste 22 Oeste 0 -- -- 73
2019-03-23 18:00:00 17.2 12 Oeste 23 Noroeste 0 -- -- 63
2019-03-23 17:00:00 19.2 8 Noroeste 24 Noroeste 0 -- -- 52
2019-03-23 16:00:00 19.2 14 Norte 26 Norte 0 -- -- 53
2019-03-23 15:00:00 19.2 16 Norte 24 Norte 0 -- -- 58
2019-03-23 14:00:00 18.9 13 Norte 21 Norte 0 -- -- 59
2019-03-23 13:00:00 18.4 5 Nordeste 14 Nordeste 0 -- -- 53
2019-03-23 12:00:00 16.5 6 Nordeste 11 Norte 0 -- -- 60
2019-03-23 11:00:00 13.3 2 Nordeste 5 Sudeste 0 -- -- 75
2019-03-23 10:00:00 9.2 0 Calma 4 Este 0 -- -- 90
2019-03-23 09:00:00 4.7 2 Sudeste 5 Sudoeste 0 -- -- 96
2019-03-23 08:00:00 2.5 0 Calma 4 Norte 0 -- -- 97
2019-03-23 07:00:00 2.3 0 Calma 4 Sudoeste 0 -- -- 95
2019-03-23 06:00:00 2.9 0 Calma 4 Oeste 0 -- -- 94
2019-03-23 05:00:00 3.1 0 Calma 4 Norte 0 -- -- 92
2019-03-23 04:00:00 3.6 2 Sudeste 4 Norte 0 -- -- 93
2019-03-23 03:00:00 4.4 2 Norte 3 Noroeste 0 -- -- 93
2019-03-23 02:00:00 4.7 0 Calma 4 Noroeste 0 -- -- 88
2019-03-23 01:00:00 5.4 2 Sudeste 4 Sudeste 0 -- -- 86
2019-03-23 00:00:00 6.3 0 Calma 5 Oeste 0 -- -- 85
2019-03-22 23:00:00 7.3 0 Calma 3 Sudoeste 0 -- -- 78
2019-03-22 22:00:00 8.4 3 Noroeste 4 Noroeste 0 -- -- 74
2019-03-22 21:00:00 9.4 3 Noroeste 6 Noroeste 0 -- -- 72
2019-03-22 20:00:00 12 3 Sur 5 Sudoeste 0 -- -- 63
2019-03-22 19:00:00 15.9 2 Norte 13 Norte 0 -- -- 49
2019-03-22 18:00:00 16.9 6 Norte 19 Norte 0 -- -- 46
2019-03-22 17:00:00 17.4 14 Norte 26 Norte 0 -- -- 42
2019-03-22 16:00:00 18.3 15 Norte 26 Norte 0 -- -- 46
2019-03-22 15:00:00 19.1 11 Norte 31 Norte 0 -- -- 41
2019-03-22 14:00:00 19.1 9 Nordeste 20 Nordeste 0 -- -- 36
2019-03-22 13:00:00 19.1 6 Sudeste 14 Nordeste 0 -- -- 31
2019-03-22 12:00:00 18.4 6 Este 16 Sur 0 -- -- 32
2019-03-22 11:00:00 16.6 3 Noroeste 8 Norte 0 -- -- 40
2019-03-22 10:00:00 14.9 5 Sudoeste 17 Sudeste 0 -- -- 44
2019-03-22 09:00:00 12.5 10 Sudeste 24 Sudeste 0 -- -- 50
2019-03-22 08:00:00 9.5 6 Sur 17 Sudeste 0 -- -- 51
2019-03-22 07:00:00 9.2 10 Este 22 Este 0 -- -- 55
2019-03-22 06:00:00 6.9 7 Sudeste 18 Sudeste 0 -- -- 68
2019-03-22 05:00:00 4.6 5 Norte 10 Oeste 0 -- -- 83
2019-03-22 04:00:00 0.8 3 Noroeste 13 Sudeste 0 -- -- 97
2019-03-22 03:00:00 1.7 2 Oeste 4 Sudoeste 0 -- -- 98
2019-03-22 02:00:00 2.7 0 Calma 3 Oeste 0 -- -- 96
2019-03-22 01:00:00 3.3 0 Calma 4 Sudoeste 0 -- -- 95
2019-03-22 00:00:00 4.1 2 Sudoeste 4 Norte 0 -- -- 94
2019-03-21 23:00:00 4.7 0 Calma 5 Nordeste 0 -- -- 91
2019-03-21 22:00:00 6 4 Norte 6 Noroeste 0 -- -- 90
2019-03-21 21:00:00 7.2 0 Calma 9 Sudoeste 0 -- -- 82
2019-03-21 20:00:00 9.5 7 Oeste 10 Oeste 0 -- -- 75
2019-03-21 19:00:00 11 6 Noroeste 19 Norte 0 -- -- 71
2019-03-21 18:00:00 11.9 13 Norte 27 Norte 0 -- -- 70
2019-03-21 17:00:00 12.6 17 Norte 27 Norte 0 -- -- 68
2019-03-21 16:00:00 13.5 15 Norte 27 Norte 0 -- -- 63
2019-03-21 15:00:00 13.3 17 Norte 26 Norte 0 -- -- 63
2019-03-21 14:00:00 13.4 16 Norte 26 Norte 0 -- -- 63
2019-03-21 13:00:00 13 8 Norte 18 Norte 0 -- -- 63
2019-03-21 12:00:00 12.3 4 Norte 9 Norte 0 -- -- 63
2019-03-21 11:00:00 8.9 2 Norte 6 Norte 0 -- -- 78
2019-03-21 10:00:00 4.3 2 Este 4 Nordeste 0 -- -- 98
2019-03-21 09:00:00 1.7 2 Nordeste 3 Norte 0 -- -- 99
2019-03-21 08:00:00 -0.1 2 Este 3 Este 0 -- -- 98
2019-03-21 07:00:00 -0.2 0 Calma 3 Norte 0 -- -- 97
2019-03-21 06:00:00 0 0 Calma 4 Oeste 0 -- -- 97
2019-03-21 05:00:00 0.5 2 Noroeste 4 Norte 0 -- -- 97
2019-03-21 04:00:00 0.8 2 Noroeste 5 Oeste 0 -- -- 97
2019-03-21 03:00:00 1 0 Calma 4 Sudoeste 0 -- -- 96
2019-03-21 02:00:00 1.8 2 Noroeste 4 Norte 0 -- -- 94
2019-03-21 01:00:00 2 3 Sudoeste 4 Nordeste 0 -- -- 93
2019-03-21 00:00:00 3.2 2 Noroeste 5 Sudoeste 0 -- -- 90
2019-03-20 23:00:00 3.7 0 Calma 8 Nordeste 0 -- -- 86
2019-03-20 22:00:00 4.8 4 Sudeste 8 Oeste 0 -- -- 83
2019-03-20 21:00:00 6.3 3 Oeste 9 Norte 0 -- -- 75
2019-03-20 20:00:00 7.8 9 Norte 17 Norte 0 -- -- 69
2019-03-20 19:00:00 9.4 12 Norte 20 Norte 0 -- -- 61
2019-03-20 18:00:00 10.9 13 Norte 26 Norte 0 -- -- 56
2019-03-20 17:00:00 11.6 16 Norte 30 Nordeste 0 -- -- 56
2019-03-20 16:00:00 12.3 22 Nordeste 34 Nordeste 0 -- -- 58
2019-03-20 15:00:00 12.6 18 Nordeste 29 Norte 0 -- -- 55
2019-03-20 14:00:00 12.8 15 Nordeste 31 Nordeste 0 -- -- 56
2019-03-20 13:00:00 12.4 17 Nordeste 27 Nordeste 0 -- -- 70
2019-03-20 12:00:00 11.8 11 Nordeste 23 Norte 0 -- -- 75
2019-03-20 11:00:00 10.4 14 Norte 22 Norte 0 -- -- 83
2019-03-20 10:00:00 8.6 3 Noroeste 9 Nordeste 0 -- -- 95
2019-03-20 09:00:00 6.6 3 Noroeste 8 Norte 0 -- -- 100
2019-03-20 08:00:00 6.7 4 Sudoeste 5 Sur 0 -- -- 99
2019-03-20 07:00:00 6.9 0 Calma 5 Norte 0 -- -- 99
2019-03-20 06:00:00 7.1 4 Oeste 8 Oeste 0 -- -- 97
2019-03-20 05:00:00 7.1 4 Sudoeste 12 Nordeste 1.6 -- -- 98
2019-03-20 04:00:00 6.9 4 Nordeste 6 Nordeste 0.4 -- -- 99
2019-03-20 03:00:00 6.8 0 Calma 6 Este 0 -- -- 98
2019-03-20 02:00:00 7 3 Noroeste 9 Oeste 0 -- -- 98
2019-03-20 01:00:00 7.7 4 Oeste 5 Oeste 0 -- -- 96
2019-03-20 00:00:00 8.1 4 Oeste 7 Oeste 0 -- -- 93
2019-03-19 23:00:00 8 4 Noroeste 11 Norte 0.8 -- -- 97
2019-03-19 22:00:00 8.2 4 Noroeste 6 Este 2.4 -- -- 97
2019-03-19 21:00:00 8.5 0 Calma 4 Este 0 -- -- 92
2019-03-19 20:00:00 8.6 3 Noroeste 8 Oeste 0 -- -- 91
2019-03-19 19:00:00 9.1 8 Nordeste 15 Nordeste 0 -- -- 86
2019-03-19 18:00:00 9.7 3 Noroeste 13 Noroeste 0 -- -- 88
2019-03-19 17:00:00 9.7 5 Norte 15 Norte 0.2 -- -- 89
2019-03-19 16:00:00 9.3 15 Norte 23 Norte 0.6 -- -- 89
2019-03-19 15:00:00 10.2 9 Norte 27 Norte 0.4 -- -- 85
2019-03-19 14:00:00 9.7 12 Norte 24 Nordeste 0 -- -- 89
2019-03-19 13:00:00 9.3 10 Norte 23 Norte 1.2 -- -- 94
2019-03-19 12:00:00 9.9 12 Norte 22 Norte 0.2 -- -- 89
2019-03-19 11:00:00 9.1 11 Nordeste 27 Norte 1 -- -- 93
2019-03-19 10:00:00 9.1 14 Norte 33 Noroeste 1.6 -- -- 90
2019-03-19 09:00:00 7.9 12 Noroeste 20 Oeste 2.6 -- -- 96
2019-03-19 08:00:00 7.5 12 Noroeste 26 Noroeste 0.8 -- -- 96
2019-03-19 07:00:00 7.5 8 Noroeste 20 Noroeste 1.2 -- -- 95
2019-03-19 06:00:00 7.4 9 Noroeste 17 Noroeste 0.4 -- -- 95
2019-03-19 05:00:00 7.2 3 Oeste 19 Noroeste 0 -- -- 89
2019-03-19 04:00:00 7.4 14 Noroeste 29 Noroeste 0.2 -- -- 91
2019-03-19 03:00:00 7.5 3 Norte 15 Noroeste 0.2 -- -- 92
2019-03-19 02:00:00 7.1 2 Noroeste 18 Norte 3.8 -- -- 96
2019-03-19 01:00:00 7.5 5 Nordeste 13 Noroeste 1 -- -- 93
2019-03-19 00:00:00 8.1 9 Noroeste 19 Noroeste 0.2 -- -- 86